TimeEST,TemperatureF,Dew PointF,Humidity,Sea Level PressureIn,VisibilityMPH,Wind Direction,Wind SpeedMPH,Gust SpeedMPH,PrecipitationIn,Events,Conditions,WindDirDegrees,DateUTC
12:52 AM,32.0,26.1,79,30.25,9.0,Calm,Calm,-,N/A,,Overcast,0,2013-01-16 05:52:00
1:52 AM,32.0,25.0,75,30.24,10.0,Calm,Calm,-,N/A,,Overcast,0,2013-01-16 06:52:00
3:52 AM,32.0,24.1,73,30.18,10.0,Calm,Calm,-,N/A,,Overcast,0,2013-01-16 08:52:00
4:27 AM,30.2,24.8,80,30.16,2.0,Calm,Calm,-,0.00,Snow,Light Snow,0,2013-01-16 09:27:00
4:35 AM,30.2,24.8,80,30.16,1.5,Calm,Calm,-,0.00,Snow,Light Snow,0,2013-01-16 09:35:00
4:41 AM,30.2,24.8,80,30.16,1.0,Calm,Calm,-,0.00,Snow,Light Snow,0,2013-01-16 09:41:00
4:52 AM,30.0,26.1,85,30.16,0.8,Calm,Calm,-,0.02,Snow,Light Snow,0,2013-01-16 09:52:00
5:00 AM,30.2,26.6,86,30.14,0.8,Calm,Calm,-,0.01,Snow,Light Snow,0,2013-01-16 10:00:00
5:12 AM,28.4,26.6,93,30.14,1.0,Calm,Calm,-,0.02,Snow,Light Snow,0,2013-01-16 10:12:00
5:24 AM,28.4,26.6,93,30.14,0.8,Calm,Calm,-,0.03,Snow,Light Snow,0,2013-01-16 10:24:00
5:52 AM,28.9,27.0,92,30.16,0.5,Calm,Calm,-,0.08,Fog-Snow,Snow,0,2013-01-16 10:52:00
6:03 AM,28.4,26.6,93,30.14,0.5,Calm,Calm,-,0.02,Fog-Snow,Snow,0,2013-01-16 11:03:00
6:24 AM,28.4,26.6,93,30.14,0.5,NNW,3.5,-,0.06,Fog-Snow,Snow,330,2013-01-16 11:24:00
6:31 AM,28.4,28.4,100,30.13,0.5,Calm,Calm,-,0.07,Fog-Snow,Snow,0,2013-01-16 11:31:00
6:43 AM,28.4,26.6,93,30.13,0.5,Calm,Calm,-,0.09,Fog-Snow,Snow,0,2013-01-16 11:43:00
7:22 AM,28.4,28.4,100,30.10,1.0,Calm,Calm,-,0.04,Snow,Light Snow,0,2013-01-16 12:22:00
7:42 AM,28.4,26.6,93,30.10,0.8,Calm,Calm,-,0.05,Snow,Light Snow,0,2013-01-16 12:42:00
7:52 AM,28.9,27.0,92,30.11,0.8,Calm,Calm,-,0.05,Snow,Light Snow,0,2013-01-16 12:52:00
8:04 AM,28.4,26.6,93,30.09,0.8,Calm,Calm,-,0.01,Snow,Light Snow,0,2013-01-16 13:04:00
8:24 AM,28.4,26.6,93,30.09,1.0,Calm,Calm,-,0.01,Snow,Light Snow,0,2013-01-16 13:24:00
8:41 AM,28.4,26.6,93,30.09,0.5,Calm,Calm,-,0.02,Fog-Snow,Snow,0,2013-01-16 13:41:00
8:52 AM,30.0,27.0,88,30.10,0.5,Calm,Calm,-,0.03,Fog-Snow,Snow,0,2013-01-16 13:52:00
9:00 AM,30.2,26.6,86,30.08,0.8,Calm,Calm,-,0.01,Snow,Light Snow,0,2013-01-16 14:00:00
9:09 AM,30.2,28.4,93,30.06,1.0,Calm,Calm,-,0.01,Snow,Light Snow,0,2013-01-16 14:09:00
9:24 AM,30.2,26.6,86,30.05,1.8,Calm,Calm,-,0.02,Snow,Light Snow,0,2013-01-16 14:24:00
9:31 AM,30.2,26.6,86,30.04,2.5,Calm,Calm,-,0.02,Snow,Light Snow,0,2013-01-16 14:31:00
9:42 AM,30.2,26.6,86,30.03,3.0,Calm,Calm,-,0.02,,Overcast,0,2013-01-16 14:42:00
9:52 AM,30.0,27.0,88,30.03,2.0,NNE,3.5,-,0.02,,Overcast,30,2013-01-16 14:52:00
10:03 AM,30.2,26.6,86,30.01,2.0,North,3.5,-,0.00,Rain,Light Freezing Rain,350,2013-01-16 15:03:00
10:21 AM,30.2,26.6,86,29.99,1.8,North,4.6,-,0.00,Rain,Light Freezing Rain,360,2013-01-16 15:21:00
10:37 AM,30.2,28.4,93,30.00,2.0,NNE,4.6,-,0.00,Rain,Light Freezing Rain,30,2013-01-16 15:37:00
10:44 AM,30.2,28.4,93,30.01,1.8,North,3.5,-,0.01,Rain,Light Freezing Rain,10,2013-01-16 15:44:00
10:52 AM,30.9,28.0,89,30.01,1.5,North,5.8,-,0.01,Rain,Light Freezing Rain,350,2013-01-16 15:52:00
11:50 AM,32.0,28.4,87,29.95,2.0,North,6.9,-,0.03,Rain,Light Freezing Rain,350,2013-01-16 16:50:00
11:52 AM,32.0,28.0,85,29.96,2.0,North,4.6,-,0.03,Rain,Light Freezing Rain,350,2013-01-16 16:52:00
12:12 PM,32.0,28.4,87,29.94,1.8,Calm,Calm,-,0.00,Snow,Light Snow,0,2013-01-16 17:12:00
12:34 PM,32.0,28.4,87,29.92,2.0,Calm,Calm,-,0.01,Snow,Light Snow,0,2013-01-16 17:34:00
12:52 PM,32.0,30.0,92,29.94,2.5,Calm,Calm,-,0.02,Snow,Light Snow,0,2013-01-16 17:52:00
1:02 PM,32.0,30.2,93,29.93,4.0,NNW,4.6,-,0.00,Snow,Light Snow,330,2013-01-16 18:02:00
1:13 PM,32.0,30.2,93,29.91,2.0,NNW,5.8,-,0.01,Snow,Light Snow,340,2013-01-16 18:13:00
1:22 PM,32.0,30.2,93,29.90,3.0,Calm,Calm,-,0.01,Snow,Light Snow,0,2013-01-16 18:22:00
1:30 PM,32.0,30.2,93,29.89,2.5,Calm,Calm,-,0.01,,Overcast,0,2013-01-16 18:30:00
1:40 PM,33.8,30.2,87,29.89,3.0,NNW,4.6,-,0.01,Rain,Light Rain,330,2013-01-16 18:40:00
1:52 PM,32.0,30.0,92,29.86,2.5,Calm,Calm,-,0.02,Rain,Light Rain,0,2013-01-16 18:52:00
2:30 PM,33.8,30.2,87,29.86,3.0,NNW,3.5,-,0.00,,Overcast,340,2013-01-16 19:30:00
2:52 PM,33.1,30.0,89,29.88,3.0,NNW,5.8,-,0.00,,Overcast,340,2013-01-16 19:52:00
3:01 PM,32.0,30.2,93,29.87,2.0,NW,5.8,-,0.00,Rain,Light Freezing Rain,320,2013-01-16 20:01:00
3:10 PM,32.0,30.2,93,29.86,1.5,Calm,Calm,-,0.00,Rain,Light Freezing Rain,0,2013-01-16 20:10:00
3:33 PM,33.8,30.2,87,29.86,2.5,NW,5.8,-,0.01,Rain,Light Freezing Rain,320,2013-01-16 20:33:00
3:48 PM,33.8,30.2,87,29.85,2.5,NNW,3.5,-,0.02,Snow,Light Snow,330,2013-01-16 20:48:00
3:52 PM,33.1,30.9,92,29.87,2.5,NNW,3.5,-,0.02,Snow,Light Snow,330,2013-01-16 20:52:00
4:00 PM,33.8,30.2,87,29.86,3.0,Calm,Calm,-,0.00,Snow,Light Snow,0,2013-01-16 21:00:00
4:16 PM,33.8,30.2,87,29.85,2.0,Calm,Calm,-,0.00,Snow,Light Snow,0,2013-01-16 21:16:00
4:26 PM,33.8,30.2,87,29.85,4.0,Calm,Calm,-,0.00,Snow,Light Snow,0,2013-01-16 21:26:00
4:52 PM,33.1,30.9,92,29.86,9.0,Calm,Calm,-,0.00,,Overcast,0,2013-01-16 21:52:00
5:08 PM,33.8,30.2,87,29.85,10.0,Calm,Calm,-,N/A,,Overcast,0,2013-01-16 22:08:00
5:52 PM,33.1,30.9,92,29.87,10.0,Calm,Calm,-,N/A,,Overcast,0,2013-01-16 22:52:00
6:52 PM,33.1,30.9,92,29.84,8.0,SE,3.5,-,N/A,,Overcast,140,2013-01-16 23:52:00
7:52 PM,33.1,30.9,92,29.85,7.0,Calm,Calm,-,N/A,,Overcast,0,2013-01-17 00:52:00
8:52 PM,33.1,30.9,92,29.85,6.0,Calm,Calm,-,N/A,,Overcast,0,2013-01-17 01:52:00
9:52 PM,34.0,32.0,92,29.84,10.0,Calm,Calm,-,N/A,,Overcast,0,2013-01-17 02:52:00
10:33 PM,35.6,30.2,81,29.82,10.0,Calm,Calm,-,N/A,,Overcast,0,2013-01-17 03:33:00
10:52 PM,34.0,30.9,89,29.83,10.0,Calm,Calm,-,N/A,,Overcast,0,2013-01-17 03:52:00
11:22 PM,35.6,30.2,81,29.81,10.0,Variable,5.8,-,N/A,,Mostly Cloudy,0,2013-01-17 04:22:00
11:33 PM,35.6,30.2,81,29.82,10.0,WSW,5.8,-,N/A,,Scattered Clouds,250,2013-01-17 04:33:00
11:52 PM,35.1,30.0,82,29.83,10.0,Variable,3.5,-,N/A,,Clear,0,2013-01-17 04:52:00